Flight Track Log - Related Links

Times and Time Zones

All times are in EDT time to prevent confusion due to time zone crossing. See the N16278 flight status page for this flight to view local times or setup timezone preferences in your user account.

Time Position Orientation Groundspeed Altitude Reporting Facility
EDT Latitude Longitude Course Direction KTS MPH feet Rate Location/Type
Sun 03:25:15 PM 39.0500 -84.3833 North 109 125 2,500  Level Cincinnati TRACON
Sun 03:25:51 PM 39.0333 -84.3667 142° Southeast 113 130 2,500 -50 Level Cincinnati TRACON
Sun 03:27:15 PM 39.0000 -84.3167 131° Southeast 126 145 2,400 -45 Descending Cincinnati TRACON
Sun 03:28:03 PM 38.9667 -84.3333 201° Southwest 111 128 2,400  Level Cincinnati TRACON
Sun 03:28:57 PM 38.9500 -84.3167 142° Southeast 128 147 2,400 -56 Level Cincinnati TRACON
Sun 03:29:51 PM 38.9333 -84.2833 123° Southeast 131 151 2,300 -50 Descending Cincinnati TRACON
Sun 03:30:00 PM 39.4622 -84.2518 North  Level Estimated
Sun 03:30:57 PM 38.9000 -84.2500 142° Southeast 114 131 2,300  Level Cincinnati TRACON
Sun 03:31:51 PM 38.9167 -84.2833 303° West 112 129 2,300 111 Level Cincinnati TRACON
Sun 03:32:45 PM 38.9333 -84.3000 322° Northwest 113 130 2,500 105 Climbing Cincinnati TRACON
Sun 03:33:45 PM 38.9333 -84.2667 90° East 133 153 2,500 -50 Level Cincinnati TRACON
Sun 03:34:45 PM 38.9167 -84.2333 123° Southeast 117 135 2,400  Descending Cincinnati TRACON
Sun 03:35:45 PM 38.9333 -84.2667 303° West 102 117 2,500 50 Climbing Cincinnati TRACON
Sun 03:36:45 PM 38.9500 -84.3000 303° West 101 116 2,500 143 Level Cincinnati TRACON
Sun 03:37:51 PM 38.9667 -84.3167 322° Northwest 121 139 2,800 167 Climbing Cincinnati TRACON
Sun 03:39:00 PM 38.9945 -84.3375 330° Northwest  Level FlightAware Approximate
Sun 03:39:45 PM 39.0333 -84.2667 330° Northwest 156 180 3,000  Level Cincinnati TRACON
Sun 03:40:33 PM 39.0667 -84.2500 21° North 147 169 2,900  Descending Cincinnati TRACON
Sun 03:41:33 PM 39.1000 -84.2333 21° North 146 168 3,000 50 Climbing Cincinnati TRACON
Sun 03:42:33 PM 39.1333 -84.2000 38° Northeast 146 168 3,000 -48 Level Cincinnati TRACON
Sun 03:43:39 PM 39.1833 -84.2167 346° North 145 167 2,900 -48 Descending Cincinnati TRACON
Sun 03:44:39 PM 39.2333 -84.2167 360° North 141 162 2,900  Level Cincinnati TRACON
Sun 03:45:39 PM 39.2667 -84.2167 360° North 128 147 2,900  Level Cincinnati TRACON
Sun 03:46:39 PM 39.2833 -84.2500 303° West 128 147 2,900 -200 Level Cincinnati TRACON
Sun 03:47:39 PM 39.3000 -84.3000 293° West 130 150 2,500 -150 Descending Cincinnati TRACON
Sun 03:48:39 PM 39.3167 -84.3333 303° West 108 124 2,600  Climbing Cincinnati TRACON
Sun 03:49:51 PM 39.3167 -84.3833 270° West 125 144 2,500 -273 Descending Cincinnati TRACON
Sun 03:50:51 PM 39.3333 -84.4167 303° West 98 113 2,000 -450 Descending Cincinnati TRACON
Sun 03:51:51 PM 39.3333 -84.4500 270° West 79 91 1,600 -300 Descending Cincinnati TRACON
Sun 03:52:51 PM 39.3500 -84.4667 322° Northwest 92 106 1,400 -100 Descending Cincinnati TRACON
Sun 03:53:51 PM 39.3667 -84.5000 303° West 100 115 1,400 250 Level Cincinnati TRACON
Sun 03:54:51 PM 39.3667 -84.5333 270° West 98 113 1,900 515 Climbing Cincinnati TRACON
Sun 03:56:00 PM 39.3786 -84.4984 66° East  Level Estimated
Sun 03:57:09 PM 39.4478 -84.5114 66° East 170 196 3,100  Level Indianapolis Center
Sun 03:57:42 PM 39.4708 -84.5042 14° North 144 166 3,000 -97 Descending Indianapolis Center
Sun 03:58:11 PM 39.4864 -84.4997 12° North 146 168 3,000  Level Indianapolis Center
Sun 03:58:42 PM 39.5078 -84.4903 19° North 144 166 3,000  Level Indianapolis Center
Sun 03:59:13 PM 39.5236 -84.4825 21° North 143 165 3,000  Level Indianapolis Center
Sun 03:59:43 PM 39.5450 -84.4708 23° Northeast 141 162 3,000  Level Indianapolis Center
Sun 04:00:15 PM 39.5606 -84.4639 19° North 142 163 3,000  Level Indianapolis Center
Sun 04:00:44 PM 39.5800 -84.4539 22° Northeast 139 160 3,000  Level Indianapolis Center
Sun 04:01:17 PM 39.5964 -84.4461 20° North 140 161 3,000  Level Indianapolis Center
Sun 04:01:45 PM 39.6175 -84.4292 32° Northeast 145 167 3,000  Level Indianapolis Center
Sun 04:02:19 PM 39.6344 -84.4089 43° Northeast 145 167 3,000  Level Indianapolis Center
Sun 04:02:46 PM 39.6497 -84.3956 34° Northeast 152 175 3,000 -97 Level Indianapolis Center
Sun 04:03:21 PM 39.6692 -84.3783 34° Northeast 148 170 2,900  Descending Indianapolis Center
Sun 04:03:47 PM 39.6836 -84.3650 35° Northeast 144 166 3,000  Climbing Indianapolis Center
Sun 04:04:23 PM 39.7025 -84.3525 27° Northeast 143 165 2,900  Descending Indianapolis Center
Sun 04:04:48 PM 39.7092 -84.3331 66° East 143 165 3,000  Climbing Indianapolis Center
Sun 04:05:25 PM 39.6925 -84.3200 149° Southeast 141 162 2,900  Descending Indianapolis Center
Sun 04:05:49 PM 39.6806 -84.3239 194° South 107 123 3,000 -97 Climbing Indianapolis Center
Sun 04:06:27 PM 39.6633 -84.3253 184° South 117 135 2,800 -100 Descending Indianapolis Center
Sun 04:06:49 PM 39.6542 -84.3122 132° Southeast 118 136 2,900 194 Climbing Indianapolis Center
Sun 04:07:29 PM 39.6456 -84.2889 116° Southeast 124 143 3,000 197 Climbing Indianapolis Center
Sun 04:07:50 PM 39.6431 -84.2672 99° East 126 145 3,100  Climbing Indianapolis Center
Sun 04:08:30 PM 39.6353 -84.2486 118° Southeast 120 138 3,000 -98 Descending Indianapolis Center
Sun 04:08:51 PM 39.6225 -84.2347 140° Southeast 127 146 3,000 -484 Level Indianapolis Center
Sun 04:09:32 PM 39.6025 -84.2358 182° South 126 145 2,500 -492 Descending Indianapolis Center
Sun 04:09:52 PM 39.5864 -84.2408 193° South 129 148 2,500 -97 Level Indianapolis Center
Sun 04:10:34 PM 39.5661 -84.2461 191° South 122 140 2,400  Descending Indianapolis Center
Sun 04:10:53 PM 39.5589 -84.2453 175° South 105 121 2,500 -194 Climbing Indianapolis Center
Sun 04:11:36 PM 39.5361 -84.2453 180° South 111 128 2,200 -393 Descending Indianapolis Center
Sun 04:11:54 PM 39.5275 -84.2467 187° South 110 127 2,100 -290 Descending Indianapolis Center
Sun 04:12:38 PM 39.5042 -84.2472 181° South 110 127 1,900 -590 Descending Indianapolis Center
Sun 04:12:55 PM 39.4978 -84.2481 186° South 103 119 1,500 -1,412 Descending Indianapolis Center

Login

Don't have an account? Register now (free) for customized features, flight alerts, and more!